createdAt,value
2019-03-21T00:01:19.592Z,5.95
2019-03-21T00:03:49.458Z,6.45
2019-03-21T00:06:17.678Z,5.92
2019-03-21T00:08:47.129Z,5.92
2019-03-21T00:11:38.162Z,6.17
2019-03-21T00:14:09.648Z,6.42
2019-03-21T00:16:37.867Z,6.15
2019-03-21T00:19:06.116Z,7.17
2019-03-21T00:21:34.364Z,7.17
2019-03-21T00:24:02.607Z,7.05
2019-03-21T00:26:31.495Z,7.20
2019-03-21T00:28:59.721Z,6.53
2019-03-21T00:31:27.936Z,6.95
2019-03-21T00:33:56.168Z,6.78
2019-03-21T00:36:24.380Z,7.55
2019-03-21T00:38:52.605Z,8.03
2019-03-21T00:41:20.822Z,7.15
2019-03-21T00:43:49.463Z,6.90
2019-03-21T00:46:17.684Z,7.37
2019-03-21T00:48:45.905Z,6.92
2019-03-21T00:51:14.130Z,8.40
2019-03-21T00:53:42.371Z,8.35
2019-03-21T00:56:10.599Z,7.72
2019-03-21T00:58:39.094Z,7.70
2019-03-21T01:01:08.535Z,7.72
2019-03-21T01:03:38.038Z,6.85
2019-03-21T01:06:06.274Z,7.53
2019-03-21T01:08:34.484Z,7.37
2019-03-21T01:11:02.697Z,7.97
2019-03-21T01:13:38.787Z,7.53
2019-03-21T01:16:07.013Z,8.50
2019-03-21T01:18:39.163Z,8.35
2019-03-21T01:21:07.454Z,7.42
2019-03-21T01:23:35.681Z,7.78
2019-03-21T01:26:06.788Z,9.20
2019-03-21T01:28:35.035Z,7.50
2019-03-21T01:31:03.262Z,9.70
2019-03-21T01:33:32.055Z,8.78
2019-03-21T01:36:02.183Z,8.13
2019-03-21T01:38:30.410Z,7.87
2019-03-21T01:41:01.177Z,7.83
2019-03-21T01:43:29.402Z,7.47
2019-03-21T01:45:57.886Z,7.50
2019-03-21T01:48:26.111Z,6.78
2019-03-21T01:50:54.369Z,6.87
2019-03-21T01:53:23.916Z,7.22
2019-03-21T01:55:52.192Z,7.08
2019-03-21T01:58:21.718Z,6.62
2019-03-21T02:00:55.105Z,7.70
2019-03-21T02:03:23.331Z,6.85
2019-03-21T02:05:51.565Z,6.53
2019-03-21T02:08:19.786Z,7.25
2019-03-21T02:10:48.104Z,7.53
2019-03-21T02:13:16.325Z,6.55
2019-03-21T02:15:46.554Z,6.97
2019-03-21T02:18:14.509Z,6.80
2019-03-21T02:20:43.254Z,7.47
2019-03-21T02:23:11.480Z,7.62
2019-03-21T02:25:46.471Z,6.15
2019-03-21T02:28:14.708Z,6.72
2019-03-21T02:30:48.910Z,6.15
2019-03-21T02:33:26.160Z,6.70
2019-03-21T02:35:56.228Z,6.85
2019-03-21T02:38:24.911Z,6.67
2019-03-21T02:40:56.288Z,5.95
2019-03-21T02:43:26.309Z,6.10
2019-03-21T02:45:54.566Z,6.22
2019-03-21T02:48:22.820Z,7.10
2019-03-21T02:50:51.034Z,7.40
2019-03-21T02:53:19.312Z,6.03
2019-03-21T02:55:47.603Z,7.20
2019-03-21T02:58:15.845Z,6.50
2019-03-21T03:00:45.499Z,6.37
2019-03-21T03:03:13.741Z,6.80
2019-03-21T03:05:41.988Z,6.05
2019-03-21T03:08:10.392Z,6.20
2019-03-21T03:10:50.257Z,7.20
2019-03-21T03:13:18.518Z,6.75
2019-03-21T03:15:46.733Z,6.12
2019-03-21T03:18:18.486Z,6.20
2019-03-21T03:20:46.796Z,6.08
2019-03-21T03:23:17.166Z,6.60
2019-03-21T03:25:45.900Z,6.70
2019-03-21T03:28:25.805Z,7.72
2019-03-21T03:30:56.931Z,6.42
2019-03-21T03:33:25.151Z,6.55
2019-03-21T03:35:55.531Z,7.10
2019-03-21T03:38:24.579Z,6.60
2019-03-21T03:41:01.602Z,5.83
2019-03-21T03:43:29.860Z,6.10
2019-03-21T03:45:58.066Z,6.67
2019-03-21T03:48:27.543Z,6.20
2019-03-21T03:50:55.802Z,7.17
2019-03-21T03:53:24.008Z,6.30
2019-03-21T03:55:52.226Z,5.62
2019-03-21T03:58:29.039Z,4.92
2019-03-21T04:00:58.442Z,11.90
2019-03-21T04:03:28.290Z,21.10
2019-03-21T04:05:56.693Z,15.70
2019-03-21T04:08:24.970Z,14.73
2019-03-21T04:10:54.361Z,14.40
2019-03-21T04:13:22.609Z,10.53
2019-03-21T04:15:52.919Z,8.05
2019-03-21T04:18:23.004Z,7.65
2019-03-21T04:20:57.252Z,6.55
2019-03-21T04:23:25.483Z,6.70
2019-03-21T04:25:56.546Z,6.95
2019-03-21T04:28:24.777Z,6.12
2019-03-21T04:30:53.031Z,6.83
2019-03-21T04:33:22.765Z,6.42
2019-03-21T04:35:51.380Z,6.40
2019-03-21T04:38:19.613Z,5.62
2019-03-21T04:40:48.507Z,6.37
2019-03-21T04:43:16.841Z,6.08
2019-03-21T04:45:45.049Z,6.45
2019-03-21T04:48:13.439Z,5.50
2019-03-21T04:50:42.357Z,6.37
2019-03-21T04:53:10.615Z,6.25
2019-03-21T04:55:38.899Z,5.97
2019-03-21T04:58:07.129Z,5.95
2019-03-21T05:00:49.635Z,6.10
2019-03-21T05:03:23.769Z,5.25
2019-03-21T05:05:51.978Z,6.28
2019-03-21T05:08:20.206Z,6.37
2019-03-21T05:10:48.432Z,6.10
2019-03-21T05:13:16.670Z,5.22
2019-03-21T05:15:49.470Z,6.00
2019-03-21T05:18:29.977Z,5.75
2019-03-21T05:20:59.322Z,18.92
2019-03-21T05:23:27.632Z,13.32
2019-03-21T05:25:55.915Z,7.90
2019-03-21T05:28:24.228Z,6.92
2019-03-21T05:31:01.539Z,6.10
2019-03-21T05:33:30.159Z,5.65
2019-03-21T05:35:58.485Z,5.87
2019-03-21T05:38:29.544Z,5.45
2019-03-21T05:40:57.774Z,6.58
2019-03-21T05:43:35.100Z,6.47
2019-03-21T05:46:03.401Z,6.25
2019-03-21T05:48:32.373Z,5.83
2019-03-21T05:51:01.077Z,5.62
2019-03-21T05:53:29.304Z,6.72
2019-03-21T05:55:57.510Z,5.75
2019-03-21T05:58:25.791Z,7.35
2019-03-21T06:00:59.745Z,6.33
2019-03-21T06:03:34.167Z,7.50
2019-03-21T06:06:17.934Z,7.12
2019-03-21T06:11:33.109Z,7.10
2019-03-21T06:14:01.372Z,6.65
2019-03-21T06:16:37.591Z,7.28
2019-03-21T06:19:24.179Z,6.65
2019-03-21T06:21:59.620Z,7.12
2019-03-21T06:24:33.997Z,7.35
2019-03-21T06:27:16.912Z,7.75
2019-03-21T06:29:45.167Z,7.53
2019-03-21T06:32:13.380Z,6.75
2019-03-21T06:34:41.591Z,7.08
2019-03-21T06:37:09.842Z,6.85
2019-03-21T06:39:38.077Z,7.45
2019-03-21T06:42:20.027Z,7.50
2019-03-21T06:44:48.254Z,6.55
2019-03-21T06:47:16.461Z,6.15
2019-03-21T06:49:46.596Z,6.72
2019-03-21T06:52:15.025Z,7.37
2019-03-21T06:54:43.270Z,6.95
2019-03-21T06:57:11.472Z,7.00
2019-03-21T06:59:39.697Z,5.95
2019-03-21T07:02:07.910Z,5.95
2019-03-21T07:04:36.194Z,6.37
2019-03-21T07:07:08.487Z,6.08
2019-03-21T07:09:34.353Z,6.37
2019-03-21T07:12:02.568Z,6.00
2019-03-21T07:14:30.797Z,6.10
2019-03-21T07:17:00.701Z,6.00
2019-03-21T07:19:28.954Z,6.05
2019-03-21T07:21:57.162Z,5.40
2019-03-21T07:24:25.407Z,5.62
2019-03-21T07:26:53.613Z,5.78
2019-03-21T07:29:21.857Z,5.47
2019-03-21T07:31:50.070Z,5.33
2019-03-21T07:34:18.333Z,6.08
2019-03-21T07:36:46.524Z,5.37
2019-03-21T07:39:14.737Z,5.15
2019-03-21T07:41:42.948Z,5.10
2019-03-21T07:44:11.162Z,5.50
2019-03-21T07:46:39.374Z,4.97
2019-03-21T07:49:07.586Z,4.72
2019-03-21T07:51:35.806Z,5.10
2019-03-21T07:54:04.018Z,5.40
2019-03-21T07:56:32.238Z,5.05
2019-03-21T07:59:00.498Z,4.58
2019-03-21T08:01:28.722Z,4.67
2019-03-21T08:03:56.968Z,4.62
2019-03-21T08:06:25.217Z,4.45
2019-03-21T08:08:53.421Z,4.00
2019-03-21T08:11:21.650Z,4.40
2019-03-21T08:13:49.857Z,4.13
2019-03-21T08:16:18.123Z,4.60
2019-03-21T08:18:46.329Z,3.98
2019-03-21T08:21:14.558Z,3.37
2019-03-21T08:23:42.808Z,3.83
2019-03-21T08:26:11.022Z,3.25
2019-03-21T08:28:39.240Z,3.27
2019-03-21T08:31:12.399Z,3.17
2019-03-21T08:33:40.613Z,3.08
2019-03-21T08:36:08.832Z,2.90
2019-03-21T08:38:37.055Z,3.15
2019-03-21T08:41:05.265Z,3.02
2019-03-21T08:43:33.478Z,2.75
2019-03-21T08:46:01.739Z,3.47
2019-03-21T08:48:29.956Z,3.15
2019-03-21T08:51:07.664Z,3.02
2019-03-21T08:53:28.167Z,3.00
2019-03-21T08:55:56.381Z,3.22
2019-03-21T08:58:24.594Z,3.50
2019-03-21T09:00:52.806Z,3.42
2019-03-21T09:03:40.450Z,3.00
2019-03-21T09:06:08.665Z,3.98
2019-03-21T09:08:36.887Z,3.85
2019-03-21T09:11:05.147Z,3.72
2019-03-21T09:13:33.366Z,3.10
2019-03-21T09:16:01.603Z,3.40
2019-03-21T09:18:29.835Z,3.52
2019-03-21T09:20:58.055Z,3.50
2019-03-21T09:23:26.279Z,3.42
2019-03-21T09:25:54.506Z,3.33
2019-03-21T09:28:22.720Z,3.75
2019-03-21T09:30:50.981Z,4.40
2019-03-21T09:33:19.238Z,3.42
2019-03-21T09:35:47.486Z,6.53
2019-03-21T09:38:15.703Z,3.80
2019-03-21T09:40:43.938Z,3.80
2019-03-21T09:43:12.155Z,3.87
2019-03-21T09:45:40.383Z,3.87
2019-03-21T09:48:08.594Z,3.37
2019-03-21T09:50:36.909Z,4.12
2019-03-21T09:53:05.109Z,4.03
2019-03-21T09:55:35.046Z,4.05
2019-03-21T09:58:03.266Z,3.65
2019-03-21T10:00:33.965Z,3.72
2019-03-21T10:03:02.201Z,4.10
2019-03-21T10:05:30.412Z,3.83
2019-03-21T10:07:59.694Z,3.75
2019-03-21T10:10:29.697Z,4.20
2019-03-21T10:12:57.942Z,3.92
2019-03-21T10:15:26.208Z,3.60
2019-03-21T10:17:54.708Z,3.35
2019-03-21T10:20:22.918Z,3.35
2019-03-21T10:22:51.145Z,3.52
2019-03-21T10:25:19.362Z,5.08
2019-03-21T10:27:47.586Z,3.98
2019-03-21T10:30:37.593Z,3.50
2019-03-21T10:33:07.152Z,3.58
2019-03-21T10:35:35.361Z,4.05
2019-03-21T10:38:03.580Z,3.75
2019-03-21T10:40:34.898Z,3.47
2019-03-21T10:43:03.137Z,3.42
2019-03-21T10:45:43.684Z,3.47
2019-03-21T10:48:11.906Z,3.52
2019-03-21T10:50:43.091Z,4.10
2019-03-21T10:53:11.346Z,4.17
2019-03-21T10:55:39.628Z,3.90
2019-03-21T10:58:08.181Z,3.77
2019-03-21T11:00:36.462Z,3.77
2019-03-21T11:03:05.267Z,3.90
2019-03-21T11:05:33.520Z,3.30
2019-03-21T11:08:01.736Z,3.45
2019-03-21T11:10:29.947Z,4.17
2019-03-21T11:12:58.356Z,3.83
2019-03-21T11:15:26.644Z,4.03
2019-03-21T11:17:55.268Z,3.80
2019-03-21T11:20:34.097Z,3.47
2019-03-21T11:23:02.316Z,4.12
2019-03-21T11:25:30.581Z,3.85
2019-03-21T11:27:58.801Z,3.83
2019-03-21T11:30:37.651Z,3.95
2019-03-21T11:33:05.911Z,3.90
2019-03-21T11:35:34.128Z,4.00
2019-03-21T11:38:02.339Z,3.70
2019-03-21T11:40:30.595Z,3.70
2019-03-21T11:42:58.810Z,3.55
2019-03-21T11:45:27.021Z,3.70
2019-03-21T11:47:55.243Z,3.95
2019-03-21T11:50:23.462Z,4.12
2019-03-21T11:52:51.690Z,3.85
2019-03-21T11:55:20.030Z,3.95
2019-03-21T11:57:48.432Z,4.00
2019-03-21T12:00:16.656Z,4.03
2019-03-21T12:02:44.866Z,3.85
2019-03-21T12:05:13.090Z,4.42
2019-03-21T12:07:41.316Z,5.08
2019-03-21T12:10:11.259Z,4.53
2019-03-21T12:12:39.536Z,5.60
2019-03-21T12:15:09.399Z,5.72
2019-03-21T12:17:37.609Z,4.58
2019-03-21T12:20:07.679Z,4.50
2019-03-21T12:22:35.950Z,4.35
2019-03-21T12:25:06.049Z,4.15
2019-03-21T12:27:34.268Z,4.72
2019-03-21T12:30:02.565Z,4.67
2019-03-21T12:32:30.793Z,4.40
2019-03-21T12:34:59.015Z,4.50
2019-03-21T12:37:27.229Z,4.62
2019-03-21T12:39:55.437Z,5.10
2019-03-21T12:42:23.656Z,4.72
2019-03-21T12:44:51.886Z,3.70
2019-03-21T12:47:30.843Z,4.25
2019-03-21T12:49:50.072Z,5.05
2019-03-21T12:52:18.286Z,5.83
2019-03-21T12:54:46.511Z,4.50
2019-03-21T12:57:14.721Z,4.70
2019-03-21T12:59:42.943Z,4.80
2019-03-21T13:02:11.166Z,5.00
2019-03-21T13:04:39.378Z,5.58
2019-03-21T13:07:07.585Z,5.03
2019-03-21T13:09:35.810Z,5.22
2019-03-21T13:12:04.033Z,5.08
2019-03-21T13:14:32.254Z,5.40
2019-03-21T13:17:00.465Z,5.55
2019-03-21T13:19:28.719Z,5.58
2019-03-21T13:21:56.921Z,5.45
2019-03-21T13:24:25.184Z,4.80
2019-03-21T13:26:53.397Z,5.10
2019-03-21T13:29:21.622Z,5.03
2019-03-21T13:31:49.862Z,4.92
2019-03-21T13:34:18.159Z,5.08
2019-03-21T13:36:46.377Z,5.17
2019-03-21T13:39:14.631Z,5.30
2019-03-21T13:41:42.876Z,5.40
2019-03-21T13:44:11.137Z,6.10
2019-03-21T13:46:39.344Z,6.30
2019-03-21T13:49:07.611Z,6.50
2019-03-21T13:51:35.817Z,4.87
2019-03-21T13:54:04.063Z,4.95
2019-03-21T13:56:38.007Z,4.65
2019-03-21T13:59:02.233Z,5.08
2019-03-21T14:01:30.454Z,5.22
2019-03-21T14:03:58.674Z,5.30
2019-03-21T14:06:26.889Z,4.97
2019-03-21T14:08:55.113Z,5.03
2019-03-21T14:11:23.356Z,6.08
2019-03-21T14:13:51.612Z,8.18
2019-03-21T14:16:19.823Z,5.08
2019-03-21T14:18:48.075Z,5.80
2019-03-21T14:21:16.293Z,5.60
2019-03-21T14:23:44.544Z,4.97
2019-03-21T14:26:12.764Z,5.85
2019-03-21T14:28:40.982Z,6.05
2019-03-21T14:31:09.210Z,5.50
2019-03-21T14:33:37.521Z,5.80
2019-03-21T14:36:05.756Z,6.05
2019-03-21T14:38:34.010Z,6.37
2019-03-21T14:41:02.223Z,6.10
2019-03-21T14:43:30.472Z,6.05
2019-03-21T14:45:58.724Z,6.50
2019-03-21T14:48:26.959Z,6.37
2019-03-21T14:50:55.269Z,6.15
2019-03-21T14:53:29.102Z,6.40
2019-03-21T14:55:54.613Z,6.65
2019-03-21T14:58:22.828Z,7.20
2019-03-21T15:00:51.048Z,7.03
2019-03-21T15:03:19.303Z,7.25
2019-03-21T15:05:47.513Z,6.25
2019-03-21T15:08:15.743Z,6.35
2019-03-21T15:10:43.966Z,6.30
2019-03-21T15:13:12.190Z,6.25
2019-03-21T15:15:40.413Z,6.62
2019-03-21T15:18:08.632Z,5.90
2019-03-21T15:20:36.861Z,6.15
2019-03-21T15:23:05.074Z,6.90
2019-03-21T15:25:33.300Z,6.00
2019-03-21T15:28:01.587Z,5.95
2019-03-21T15:30:29.846Z,6.42
2019-03-21T15:32:58.059Z,6.12
2019-03-21T15:35:26.353Z,6.28
2019-03-21T15:37:54.584Z,5.97
2019-03-21T15:40:22.793Z,6.05
2019-03-21T15:42:51.013Z,6.28
2019-03-21T15:45:23.944Z,7.25
2019-03-21T15:47:49.735Z,6.17
2019-03-21T15:50:28.976Z,6.40
2019-03-21T15:52:57.473Z,6.05
2019-03-21T15:55:25.700Z,6.12
2019-03-21T15:57:53.982Z,6.35
2019-03-21T16:00:28.265Z,6.53
2019-03-21T16:02:56.486Z,6.50
2019-03-21T16:05:24.715Z,6.55
2019-03-21T16:07:52.920Z,6.10
2019-03-21T16:10:21.154Z,6.28
2019-03-21T16:12:49.400Z,5.87
2019-03-21T16:15:17.756Z,5.58
2019-03-21T16:17:45.978Z,6.22
2019-03-21T16:20:14.205Z,5.78
2019-03-21T16:22:42.418Z,5.72
2019-03-21T16:25:10.676Z,6.08
2019-03-21T16:27:38.885Z,5.90
2019-03-21T16:30:12.096Z,6.10
2019-03-21T16:32:40.343Z,5.62
2019-03-21T16:35:08.913Z,5.92
2019-03-21T16:37:37.242Z,5.95
2019-03-21T16:40:13.079Z,5.85
2019-03-21T16:42:40.886Z,6.05
2019-03-21T16:45:10.533Z,5.62
2019-03-21T16:47:38.751Z,7.17
2019-03-21T16:50:08.584Z,6.37
2019-03-21T16:52:36.840Z,5.35
2019-03-21T16:55:07.187Z,5.95
2019-03-21T16:57:35.416Z,6.03
2019-03-21T17:00:17.730Z,6.25
2019-03-21T17:02:46.815Z,5.70
2019-03-21T17:05:15.026Z,6.12
2019-03-21T17:07:45.602Z,5.40
2019-03-21T17:10:14.758Z,5.62
2019-03-21T17:12:42.976Z,5.55
2019-03-21T17:15:13.250Z,6.20
2019-03-21T17:17:41.423Z,5.58
2019-03-21T17:20:11.659Z,5.62
2019-03-21T17:22:40.796Z,6.12
2019-03-21T17:25:09.254Z,5.58
2019-03-21T17:27:37.478Z,9.08
2019-03-21T17:30:10.874Z,6.00
2019-03-21T17:32:39.089Z,5.75
2019-03-21T17:35:07.395Z,6.12
2019-03-21T17:37:36.101Z,5.60
2019-03-21T17:40:06.544Z,5.50
2019-03-21T17:42:34.762Z,6.00
2019-03-21T17:45:03.584Z,7.00
2019-03-21T17:47:31.796Z,5.62
2019-03-21T17:50:00.038Z,5.42
2019-03-21T17:52:28.276Z,5.58
2019-03-21T17:54:56.498Z,9.60
2019-03-21T17:57:33.893Z,5.62
2019-03-21T17:59:55.315Z,5.33
2019-03-21T18:02:23.573Z,5.15
2019-03-21T18:04:51.772Z,5.60
2019-03-21T18:07:19.990Z,5.62
2019-03-21T18:09:48.225Z,6.12
2019-03-21T18:12:16.437Z,5.55
2019-03-21T18:14:44.682Z,5.33
2019-03-21T18:17:14.008Z,5.72
2019-03-21T18:19:42.226Z,5.45
2019-03-21T18:22:10.438Z,5.50
2019-03-21T18:24:38.664Z,5.75
2019-03-21T18:27:06.909Z,5.70
2019-03-21T18:29:35.130Z,5.78
2019-03-21T18:32:03.350Z,5.17
2019-03-21T18:34:31.561Z,5.80
2019-03-21T18:36:59.807Z,6.17
2019-03-21T18:39:28.021Z,6.12
2019-03-21T18:41:56.242Z,5.75
2019-03-21T18:44:24.481Z,5.58
2019-03-21T18:46:52.723Z,5.87
2019-03-21T18:49:21.000Z,5.75
2019-03-21T18:51:50.818Z,6.22
2019-03-21T18:54:19.415Z,6.20
2019-03-21T18:56:47.629Z,6.70
2019-03-21T18:59:16.118Z,6.20
2019-03-21T19:01:44.425Z,6.25
2019-03-21T19:04:12.699Z,5.65
2019-03-21T19:06:40.919Z,6.17
2019-03-21T19:09:08.910Z,5.67
2019-03-21T19:11:37.130Z,5.62
2019-03-21T19:14:05.365Z,6.42
2019-03-21T19:16:33.583Z,5.90
2019-03-21T19:19:02.762Z,6.03
2019-03-21T19:21:31.051Z,5.75
2019-03-21T19:23:59.333Z,6.40
2019-03-21T19:26:27.585Z,5.65
2019-03-21T19:28:55.947Z,6.17
2019-03-21T19:31:24.539Z,6.00
2019-03-21T19:33:52.832Z,6.03
2019-03-21T19:36:21.103Z,6.87
2019-03-21T19:38:49.352Z,23.85
2019-03-21T19:41:17.719Z,8.73
2019-03-21T19:43:45.944Z,6.90
2019-03-21T19:46:14.152Z,7.22
2019-03-21T19:48:50.266Z,7.90
2019-03-21T19:51:12.309Z,7.15
2019-03-21T19:53:40.530Z,7.22
2019-03-21T19:56:25.468Z,6.60
2019-03-21T19:58:53.974Z,6.03
2019-03-21T20:01:22.219Z,6.12
2019-03-21T20:03:51.103Z,7.17
2019-03-21T20:06:19.323Z,7.75
2019-03-21T20:08:47.570Z,8.15
2019-03-21T20:11:15.816Z,7.28
2019-03-21T20:13:44.037Z,7.80
2019-03-21T20:16:12.290Z,6.67
2019-03-21T20:18:40.515Z,7.47
2019-03-21T20:21:08.794Z,6.37
2019-03-21T20:23:37.060Z,6.50
2019-03-21T20:26:05.424Z,6.40
2019-03-21T20:28:33.647Z,7.08
2019-03-21T20:31:01.869Z,6.80
2019-03-21T20:33:30.125Z,7.05
2019-03-21T20:36:00.270Z,6.53
2019-03-21T20:38:28.526Z,6.33
2019-03-21T20:40:56.773Z,5.92
2019-03-21T20:43:26.643Z,6.72
2019-03-21T20:45:54.882Z,5.87
2019-03-21T20:48:27.959Z,6.53
2019-03-21T20:50:56.736Z,5.40
2019-03-21T20:53:25.019Z,5.70
2019-03-21T20:55:54.060Z,6.17
2019-03-21T20:58:22.337Z,6.30
2019-03-21T21:00:50.563Z,6.62
2019-03-21T21:03:18.780Z,7.30
2019-03-21T21:05:47.022Z,7.05
2019-03-21T21:08:15.282Z,6.92
2019-03-21T21:10:43.509Z,6.10
2019-03-21T21:13:11.781Z,5.65
2019-03-21T21:15:40.000Z,6.30
2019-03-21T21:18:08.221Z,4.55
2019-03-21T21:20:36.475Z,6.05
2019-03-21T21:23:04.677Z,5.87
2019-03-21T21:25:32.898Z,5.85
2019-03-21T21:28:01.114Z,5.30
2019-03-21T21:30:29.367Z,5.50
2019-03-21T21:32:57.575Z,6.53
2019-03-21T21:35:25.823Z,7.00
2019-03-21T21:37:54.072Z,5.92
2019-03-21T21:40:22.290Z,5.75
2019-03-21T21:42:50.516Z,6.40
2019-03-21T21:45:18.721Z,5.62
2019-03-21T21:47:46.941Z,6.00
2019-03-21T21:50:16.150Z,5.62
2019-03-21T21:52:44.358Z,5.78
2019-03-21T21:55:12.711Z,6.25
2019-03-21T21:57:40.950Z,6.83
2019-03-21T22:00:18.195Z,6.53
2019-03-21T22:02:46.404Z,5.33
2019-03-21T22:05:14.625Z,6.22
2019-03-21T22:07:42.875Z,6.00
2019-03-21T22:10:11.103Z,6.47
2019-03-21T22:12:39.307Z,6.53
2019-03-21T22:15:28.781Z,5.35
2019-03-21T22:17:57.500Z,5.85
2019-03-21T22:20:25.759Z,6.08
2019-03-21T22:22:53.954Z,6.33
2019-03-21T22:25:22.174Z,6.00
2019-03-21T22:27:50.400Z,5.95
2019-03-21T22:30:19.173Z,6.15
2019-03-21T22:32:47.484Z,7.35
2019-03-21T22:35:15.735Z,7.05
2019-03-21T22:37:44.012Z,6.17
2019-03-21T22:40:18.575Z,6.33
2019-03-21T22:42:48.265Z,7.40
2019-03-21T22:45:17.139Z,6.90
2019-03-21T22:47:46.373Z,7.05
2019-03-21T22:50:15.630Z,6.62
2019-03-21T22:52:44.158Z,7.05
2019-03-21T22:55:12.362Z,6.87
2019-03-21T22:57:40.586Z,6.70
2019-03-21T23:00:14.355Z,8.03
2019-03-21T23:02:42.562Z,7.25
2019-03-21T23:05:10.764Z,7.22
2019-03-21T23:07:39.019Z,7.28
2019-03-21T23:10:08.011Z,6.92
2019-03-21T23:12:36.232Z,7.25
2019-03-21T23:15:07.015Z,9.30
2019-03-21T23:17:35.227Z,8.65
2019-03-21T23:20:05.525Z,8.90
2019-03-21T23:22:33.785Z,8.40
2019-03-21T23:25:02.011Z,7.83
2019-03-21T23:27:30.256Z,7.83
2019-03-21T23:29:58.465Z,7.50
2019-03-21T23:32:26.802Z,7.95
2019-03-21T23:34:55.014Z,8.60
2019-03-21T23:37:23.229Z,8.33
2019-03-21T23:39:51.474Z,7.37
2019-03-21T23:42:19.698Z,6.65
2019-03-21T23:44:47.921Z,7.87
2019-03-21T23:47:16.143Z,8.03
2019-03-21T23:49:44.446Z,8.18
2019-03-21T23:52:12.641Z,7.78
2019-03-21T23:54:40.864Z,7.58
2019-03-21T23:57:09.083Z,9.35
2019-03-21T23:59:37.328Z,8.60
